createdAt,value
2023-03-13T00:00:49.565Z,99655.41
2023-03-13T00:03:56.244Z,99661.47
2023-03-13T00:07:24.560Z,99661.06
2023-03-13T00:10:28.916Z,99652.59
2023-03-13T00:13:31.607Z,99651.91
2023-03-13T00:16:37.534Z,99639.59
2023-03-13T00:19:41.869Z,99634.50
2023-03-13T00:22:50.704Z,99635.41
2023-03-13T00:25:59.519Z,99624.78
2023-03-13T00:29:02.202Z,99627.66
2023-03-13T00:32:06.558Z,99623.78
2023-03-13T00:35:12.850Z,99623.31
2023-03-13T00:38:15.486Z,99615.06
2023-03-13T00:41:21.264Z,99596.00
2023-03-13T00:44:31.155Z,99596.81
2023-03-13T00:47:35.848Z,99593.09
2023-03-13T00:50:38.491Z,99591.00
2023-03-13T00:53:41.565Z,99584.56
2023-03-13T00:56:46.023Z,99568.66
2023-03-13T00:59:51.519Z,99570.09
2023-03-13T01:02:54.538Z,99567.44
2023-03-13T01:06:06.238Z,99553.06
2023-03-13T01:09:12.609Z,99562.03
2023-03-13T01:12:16.594Z,99554.09
2023-03-13T01:15:19.998Z,99545.28
2023-03-13T01:18:25.680Z,99544.47
2023-03-13T01:21:30.669Z,99537.25
2023-03-13T01:24:35.643Z,99533.75
2023-03-13T01:27:39.644Z,99537.41
2023-03-13T01:30:42.347Z,99528.59
2023-03-13T01:33:46.415Z,99532.31
2023-03-13T01:36:55.202Z,99517.25
2023-03-13T01:39:58.834Z,99517.25
2023-03-13T01:43:27.947Z,99512.94
2023-03-13T01:46:31.429Z,99509.91
2023-03-13T01:49:36.067Z,99507.03
2023-03-13T01:52:39.029Z,99494.31
2023-03-13T01:55:42.010Z,99485.94
2023-03-13T01:58:47.029Z,99486.38
2023-03-13T02:01:54.522Z,99482.66
2023-03-13T02:05:00.828Z,99474.97
2023-03-13T02:08:08.712Z,99462.06
2023-03-13T02:11:24.220Z,99455.53
2023-03-13T02:14:31.197Z,99435.44
2023-03-13T02:17:36.242Z,99439.53
2023-03-13T02:20:40.763Z,99434.84
2023-03-13T02:23:55.841Z,99413.63
2023-03-13T02:27:03.934Z,99413.63
2023-03-13T02:30:09.756Z,99413.44
2023-03-13T02:33:13.383Z,99403.41
2023-03-13T02:36:18.051Z,99409.31
2023-03-13T02:39:24.604Z,99398.31
2023-03-13T02:42:31.389Z,99396.31
2023-03-13T02:45:34.112Z,99387.91
2023-03-13T02:48:39.823Z,99404.16
2023-03-13T02:51:47.304Z,99381.38
2023-03-13T02:54:56.123Z,99387.28
2023-03-13T02:58:00.157Z,99381.94
2023-03-13T03:01:10.885Z,99370.25
2023-03-13T03:04:15.344Z,99371.19
2023-03-13T03:07:20.174Z,99374.88
2023-03-13T03:10:22.948Z,99373.03
2023-03-13T03:13:29.986Z,99373.81
2023-03-13T03:16:38.956Z,99373.66
2023-03-13T03:19:46.282Z,99360.28
2023-03-13T03:22:52.049Z,99358.44
2023-03-13T03:25:54.750Z,99357.41
2023-03-13T03:29:01.590Z,99354.88
2023-03-13T03:32:04.846Z,99353.13
2023-03-13T03:35:10.841Z,99340.63
2023-03-13T03:38:13.602Z,99329.91
2023-03-13T03:41:16.579Z,99334.53
2023-03-13T03:44:25.044Z,99328.25
2023-03-13T03:47:27.848Z,99322.75
2023-03-13T03:50:30.589Z,99322.75
2023-03-13T03:53:33.507Z,99322.75
2023-03-13T03:56:36.221Z,99322.63
2023-03-13T03:59:42.746Z,99323.34
2023-03-13T04:02:45.907Z,99345.09
2023-03-13T04:05:51.686Z,99353.41
2023-03-13T04:08:55.492Z,99334.47
2023-03-13T04:11:58.206Z,99335.59
2023-03-13T04:15:02.313Z,99331.22
2023-03-13T04:18:10.972Z,99338.59
2023-03-13T04:21:21.501Z,99346.88
2023-03-13T04:24:24.198Z,99328.81
2023-03-13T04:27:27.005Z,99340.97
2023-03-13T04:30:31.040Z,99323.16
2023-03-13T04:33:34.339Z,99319.78
2023-03-13T04:36:36.995Z,99318.03
2023-03-13T04:39:39.709Z,99322.66
2023-03-13T04:42:42.584Z,99305.13
2023-03-13T04:45:54.602Z,99303.72
2023-03-13T04:48:57.344Z,99304.88
2023-03-13T04:52:00.097Z,99291.44
2023-03-13T04:55:10.406Z,99310.44
2023-03-13T04:58:13.113Z,99301.28
2023-03-13T05:01:21.627Z,99303.22
2023-03-13T05:04:24.355Z,99312.13
2023-03-13T05:07:29.636Z,99305.84
2023-03-13T05:10:33.030Z,99307.38
2023-03-13T05:13:35.743Z,99299.00
2023-03-13T05:16:39.973Z,99295.34
2023-03-13T05:19:45.496Z,99294.25
2023-03-13T05:22:48.196Z,99286.94
2023-03-13T05:25:50.880Z,99275.06
2023-03-13T05:28:56.116Z,99275.81
2023-03-13T05:32:02.916Z,99260.84
2023-03-13T05:35:06.153Z,99266.25
2023-03-13T05:38:08.927Z,99265.28
2023-03-13T05:41:11.656Z,99252.38
2023-03-13T05:44:14.340Z,99266.47
2023-03-13T05:47:18.711Z,99263.78
2023-03-13T05:50:21.696Z,99251.81
2023-03-13T05:53:24.470Z,99250.53
2023-03-13T05:56:29.743Z,99248.72
2023-03-13T05:59:32.489Z,99241.38
2023-03-13T06:02:39.641Z,99226.81
2023-03-13T06:05:48.210Z,99233.72
2023-03-13T06:08:53.108Z,99228.00
2023-03-13T06:11:56.649Z,99207.97
2023-03-13T06:14:59.343Z,99198.59
2023-03-13T06:18:03.454Z,99194.81
2023-03-13T06:21:08.568Z,99220.72
2023-03-13T06:24:11.265Z,99213.84
2023-03-13T06:27:13.965Z,99219.75
2023-03-13T06:30:16.905Z,99213.66
2023-03-13T06:33:20.965Z,99208.72
2023-03-13T06:36:26.569Z,99227.41
2023-03-13T06:39:29.449Z,99228.19
2023-03-13T06:42:32.121Z,99228.94
2023-03-13T06:45:36.419Z,99216.94
2023-03-13T06:48:40.406Z,99213.03
2023-03-13T06:51:46.201Z,99198.50
2023-03-13T06:54:49.054Z,99199.09
2023-03-13T06:57:52.521Z,99180.56
2023-03-13T07:00:55.279Z,99192.94
2023-03-13T07:03:59.353Z,99192.50
2023-03-13T07:07:14.956Z,99200.16
2023-03-13T07:10:23.581Z,99188.88
2023-03-13T07:13:27.619Z,99179.25
2023-03-13T07:16:30.367Z,99193.25
2023-03-13T07:19:37.043Z,99190.22
2023-03-13T07:22:39.962Z,99200.97
2023-03-13T07:25:47.622Z,99198.94
2023-03-13T07:28:50.351Z,99187.84
2023-03-13T07:31:53.145Z,99185.47
2023-03-13T07:34:57.209Z,99187.66
2023-03-13T07:38:03.279Z,99176.59
2023-03-13T07:41:09.358Z,99163.53
2023-03-13T07:44:12.019Z,99180.59
2023-03-13T07:47:14.740Z,99182.88
2023-03-13T07:50:21.951Z,99173.56
2023-03-13T07:53:25.575Z,99158.34
2023-03-13T07:56:28.319Z,99182.69
2023-03-13T07:59:31.116Z,99175.97
2023-03-13T08:02:34.903Z,99173.78
2023-03-13T08:05:42.056Z,99176.84
2023-03-13T08:08:44.962Z,99188.38
2023-03-13T08:11:48.919Z,99194.44
2023-03-13T08:14:52.185Z,99172.63
2023-03-13T08:17:54.894Z,99194.84
2023-03-13T08:21:02.284Z,99201.16
2023-03-13T08:24:10.677Z,99199.44
2023-03-13T08:27:13.391Z,99208.34
2023-03-13T08:30:16.560Z,99214.63
2023-03-13T08:33:19.251Z,99224.44
2023-03-13T08:36:25.666Z,99204.19
2023-03-13T08:39:28.511Z,99223.09
2023-03-13T08:42:31.209Z,99201.16
2023-03-13T08:45:33.897Z,99198.84
2023-03-13T08:48:36.821Z,99217.44
2023-03-13T08:51:41.326Z,99213.72
2023-03-13T08:54:50.161Z,99223.97
2023-03-13T08:57:52.828Z,99182.22
2023-03-13T09:00:56.145Z,99222.13
2023-03-13T09:04:03.667Z,99214.81
2023-03-13T09:07:23.085Z,99206.13
2023-03-13T09:10:25.801Z,99214.59
2023-03-13T09:13:30.283Z,99193.06
2023-03-13T09:16:34.973Z,99200.69
2023-03-13T09:19:39.058Z,99184.13
2023-03-13T09:22:45.947Z,99182.19
2023-03-13T09:25:49.212Z,99185.75
2023-03-13T09:28:59.824Z,99187.81
2023-03-13T09:32:03.880Z,99194.53
2023-03-13T09:35:07.840Z,99194.34
2023-03-13T09:38:11.986Z,99197.56
2023-03-13T09:41:28.110Z,99173.44
2023-03-13T09:44:37.542Z,99193.44
2023-03-13T09:47:46.218Z,99180.56
2023-03-13T09:51:00.048Z,99176.66
2023-03-13T09:54:10.366Z,99180.34
2023-03-13T09:57:17.779Z,99180.25
2023-03-13T10:00:25.436Z,99174.44
2023-03-13T10:03:31.701Z,99174.44
2023-03-13T10:06:41.849Z,99187.13
2023-03-13T10:09:45.879Z,99178.72
2023-03-13T10:12:52.783Z,99171.19
2023-03-13T10:15:59.127Z,99155.97
2023-03-13T10:19:15.324Z,99135.53
2023-03-13T10:22:20.865Z,99124.22
2023-03-13T10:25:33.426Z,99130.31
2023-03-13T10:28:36.098Z,99129.97
2023-03-13T10:31:39.338Z,99107.72
2023-03-13T10:34:49.861Z,99105.34
2023-03-13T10:38:03.483Z,99099.66
2023-03-13T10:41:22.192Z,99116.53
2023-03-13T10:44:31.764Z,99113.25
2023-03-13T10:47:35.825Z,99112.25
2023-03-13T10:50:42.286Z,99109.56
2023-03-13T10:53:45.058Z,99104.88
2023-03-13T10:57:28.337Z,99083.69
2023-03-13T11:00:36.215Z,99086.28
2023-03-13T11:03:39.001Z,99085.50
2023-03-13T11:06:52.736Z,99097.00
2023-03-13T11:10:18.689Z,99085.97
2023-03-13T11:13:37.968Z,99071.47
2023-03-13T11:16:49.403Z,99055.06
2023-03-13T11:20:00.857Z,99044.41
2023-03-13T11:23:18.006Z,99042.78
2023-03-13T11:26:28.877Z,99044.63
2023-03-13T11:29:41.107Z,99030.19
2023-03-13T11:32:46.734Z,99020.66
2023-03-13T11:35:54.772Z,99015.84
2023-03-13T11:39:04.341Z,99004.22
2023-03-13T11:42:31.959Z,98983.31
2023-03-13T11:45:56.614Z,98978.03
2023-03-13T11:49:31.447Z,98965.91
2023-03-13T11:52:44.122Z,98965.31
2023-03-13T11:56:00.919Z,98951.88
2023-03-13T11:59:26.296Z,98939.84
2023-03-13T12:02:37.822Z,98931.75
2023-03-13T12:05:46.822Z,98925.50
2023-03-13T12:08:56.128Z,98903.81
2023-03-13T12:12:04.596Z,98896.81
2023-03-13T12:15:19.259Z,98897.16
2023-03-13T12:18:29.042Z,98875.28
2023-03-13T12:21:38.153Z,98886.53
2023-03-13T12:24:47.160Z,98890.03
2023-03-13T12:27:57.979Z,98871.16
2023-03-13T12:31:08.240Z,98847.88
2023-03-13T12:34:18.792Z,98856.66
2023-03-13T12:37:31.955Z,98859.34
2023-03-13T12:40:39.221Z,98845.63
2023-03-13T12:44:07.141Z,98845.84
2023-03-13T12:47:18.871Z,98833.97
2023-03-13T12:50:34.156Z,98821.44
2023-03-13T12:54:10.241Z,98827.75
2023-03-13T12:57:59.477Z,98826.25
2023-03-13T13:01:05.442Z,98811.94
2023-03-13T13:04:12.659Z,98796.44
2023-03-13T13:07:26.785Z,98798.81
2023-03-13T13:10:30.226Z,98791.34
2023-03-13T13:13:32.959Z,98790.72
2023-03-13T13:16:35.792Z,98789.72
2023-03-13T13:19:53.673Z,98790.06
2023-03-13T13:23:17.065Z,98771.09
2023-03-13T13:26:50.811Z,98765.81
2023-03-13T13:29:56.388Z,98770.84
2023-03-13T13:33:41.762Z,98766.50
2023-03-13T13:36:44.939Z,98751.28
2023-03-13T13:39:52.876Z,98735.97
2023-03-13T13:42:57.272Z,98739.94
2023-03-13T13:46:06.119Z,98737.19
2023-03-13T13:49:15.797Z,98746.41
2023-03-13T13:52:35.200Z,98735.34
2023-03-13T13:55:45.882Z,98684.63
2023-03-13T13:58:49.111Z,98694.91
2023-03-13T14:02:14.951Z,98665.72
2023-03-13T14:05:19.874Z,98657.81
2023-03-13T14:08:26.911Z,98652.47
2023-03-13T14:11:37.727Z,98643.34
2023-03-13T14:14:40.510Z,98637.69
2023-03-13T14:17:45.749Z,98632.38
2023-03-13T14:20:57.412Z,98621.59
2023-03-13T14:24:00.219Z,98607.38
2023-03-13T14:27:15.998Z,98593.66
2023-03-13T14:30:20.740Z,98588.81
2023-03-13T14:33:24.420Z,98584.66
2023-03-13T14:36:30.436Z,98582.78
2023-03-13T14:39:46.042Z,98562.69
2023-03-13T14:42:52.080Z,98559.75
2023-03-13T14:45:55.548Z,98550.31
2023-03-13T14:48:58.791Z,98546.53
2023-03-13T14:52:04.037Z,98542.22
2023-03-13T14:55:26.312Z,98519.44
2023-03-13T14:58:31.752Z,98528.00
2023-03-13T15:01:34.682Z,98509.16
2023-03-13T15:04:56.102Z,98499.00
2023-03-13T15:07:59.218Z,98490.44
2023-03-13T15:11:02.258Z,98484.53
2023-03-13T15:14:38.439Z,98461.00
2023-03-13T15:17:44.730Z,98465.97
2023-03-13T15:20:51.333Z,98464.91
2023-03-13T15:24:02.141Z,98453.41
2023-03-13T15:27:11.493Z,98451.75
2023-03-13T15:30:18.648Z,98445.25
2023-03-13T15:33:23.991Z,98456.94
2023-03-13T15:36:27.373Z,98452.16
2023-03-13T15:39:30.068Z,98463.97
2023-03-13T15:42:37.620Z,98458.31
2023-03-13T15:45:43.617Z,98452.25
2023-03-13T15:48:49.626Z,98429.41
2023-03-13T15:51:53.631Z,98415.16
2023-03-13T15:54:56.598Z,98396.41
2023-03-13T15:57:59.328Z,98386.28
2023-03-13T16:01:03.498Z,98380.59
2023-03-13T16:04:06.650Z,98367.56
2023-03-13T16:07:11.551Z,98355.72
2023-03-13T16:10:18.157Z,98352.09
2023-03-13T16:13:22.148Z,98323.28
2023-03-13T16:16:28.632Z,98312.66
2023-03-13T16:19:31.712Z,98319.66
2023-03-13T16:22:34.456Z,98557.66
2023-03-13T16:25:38.526Z,98563.69
2023-03-13T16:28:41.250Z,98568.13
2023-03-13T16:31:45.472Z,98580.50
2023-03-13T16:34:48.238Z,98586.91
2023-03-13T16:37:52.146Z,98598.94
2023-03-13T16:40:54.871Z,98586.72
2023-03-13T16:43:58.512Z,98583.09
2023-03-13T16:47:06.716Z,98589.00
2023-03-13T16:50:19.933Z,98575.69
2023-03-13T16:53:22.716Z,98570.38
2023-03-13T16:56:29.472Z,98584.97
2023-03-13T16:59:32.176Z,98569.03
2023-03-13T17:02:37.698Z,98571.28
2023-03-13T17:05:40.553Z,98559.66
2023-03-13T17:08:44.198Z,98569.41
2023-03-13T17:11:47.126Z,98564.34
2023-03-13T17:14:50.100Z,98564.59
2023-03-13T17:17:54.905Z,98582.06
2023-03-13T17:20:57.750Z,98581.38
2023-03-13T17:24:02.133Z,98591.25
2023-03-13T17:27:05.200Z,98558.94
2023-03-13T17:30:20.032Z,98553.09
2023-03-13T17:33:24.195Z,98536.97
2023-03-13T17:36:29.061Z,98489.81
2023-03-13T17:39:31.755Z,98542.72
2023-03-13T17:42:34.480Z,98577.91
2023-03-13T17:45:37.413Z,98550.25
2023-03-13T17:48:41.428Z,98550.25
2023-03-13T17:51:46.378Z,98565.69
2023-03-13T17:54:49.198Z,98563.94
2023-03-13T17:57:53.235Z,98538.22
2023-03-13T18:00:55.977Z,98508.78
2023-03-13T18:04:00.354Z,98484.34
2023-03-13T18:07:04.172Z,98484.22
2023-03-13T18:10:12.015Z,98449.31
2023-03-13T18:13:14.711Z,98397.34
2023-03-13T18:16:21.187Z,98421.19
2023-03-13T18:19:26.949Z,98448.34
2023-03-13T18:22:29.627Z,98462.63
2023-03-13T18:25:32.293Z,98459.31
2023-03-13T18:28:38.237Z,98459.19
2023-03-13T18:31:42.607Z,98454.22
2023-03-13T18:34:46.948Z,98449.44
2023-03-13T18:37:50.140Z,98421.16
2023-03-13T18:40:52.830Z,98422.66
2023-03-13T18:43:55.949Z,98444.09
2023-03-13T18:46:58.705Z,98453.25
2023-03-13T18:50:07.444Z,98441.38
2023-03-13T18:53:13.222Z,98453.75
2023-03-13T18:56:24.085Z,98467.22
2023-03-13T18:59:29.205Z,98469.81
2023-03-13T19:02:31.885Z,98453.50
2023-03-13T19:05:36.289Z,98455.25
2023-03-13T19:08:38.956Z,98453.25
2023-03-13T19:11:41.663Z,98444.97
2023-03-13T19:14:44.512Z,98426.34
2023-03-13T19:17:47.321Z,98473.00
2023-03-13T19:20:52.011Z,98485.34
2023-03-13T19:23:55.573Z,98494.34
2023-03-13T19:26:59.276Z,98483.00
2023-03-13T19:30:02.018Z,98464.50
2023-03-13T19:33:04.870Z,98471.03
2023-03-13T19:36:15.707Z,98483.34
2023-03-13T19:39:20.665Z,98489.81
2023-03-13T19:42:37.617Z,98507.31
2023-03-13T19:45:41.749Z,98542.63
2023-03-13T19:48:44.450Z,98571.97
2023-03-13T19:51:48.947Z,98570.25
2023-03-13T19:54:55.768Z,98602.16
2023-03-13T19:57:58.512Z,98594.69
2023-03-13T20:01:16.443Z,98582.81
2023-03-13T20:04:19.720Z,98590.34
2023-03-13T20:07:28.666Z,98564.06
2023-03-13T20:10:31.660Z,98551.34
2023-03-13T20:13:35.047Z,98576.03
2023-03-13T20:16:38.704Z,98585.03
2023-03-13T20:19:41.415Z,98578.63
2023-03-13T20:22:45.466Z,98570.22
2023-03-13T20:25:48.263Z,98564.19
2023-03-13T20:28:55.387Z,98549.75
2023-03-13T20:32:00.307Z,98540.63
2023-03-13T20:35:07.765Z,98547.03
2023-03-13T20:38:11.982Z,98548.03
2023-03-13T20:41:16.223Z,98544.56
2023-03-13T20:44:18.920Z,98497.22
2023-03-13T20:47:21.602Z,98496.09
2023-03-13T20:50:24.561Z,98478.84
2023-03-13T20:53:28.779Z,98420.00
2023-03-13T20:56:31.574Z,98374.97
2023-03-13T20:59:34.319Z,98344.91
2023-03-13T21:02:37.024Z,98333.81
2023-03-13T21:05:40.302Z,98333.69
2023-03-13T21:08:48.098Z,98321.38
2023-03-13T21:11:52.803Z,98330.97
2023-03-13T21:14:55.568Z,98350.56
2023-03-13T21:17:58.370Z,98359.84
2023-03-13T21:21:04.405Z,98364.75
2023-03-13T21:24:09.853Z,98353.31
2023-03-13T21:27:14.270Z,98344.03
2023-03-13T21:30:19.041Z,98329.25
2023-03-13T21:33:22.309Z,98334.06
2023-03-13T21:36:24.997Z,98358.44
2023-03-13T21:39:29.089Z,98347.00
2023-03-13T21:42:31.759Z,98376.16
2023-03-13T21:45:35.290Z,98370.34
2023-03-13T21:48:38.858Z,98367.00
2023-03-13T21:51:41.575Z,98363.69
2023-03-13T21:54:45.728Z,98374.84
2023-03-13T21:57:48.415Z,98391.59
2023-03-13T22:00:54.530Z,98393.78
2023-03-13T22:03:57.285Z,98404.75
2023-03-13T22:06:59.990Z,98403.13
2023-03-13T22:10:05.374Z,98400.53
2023-03-13T22:13:09.384Z,98397.81
2023-03-13T22:16:12.588Z,98387.81
2023-03-13T22:19:17.303Z,98376.84
2023-03-13T22:22:23.433Z,98372.31
2023-03-13T22:25:27.524Z,98367.25
2023-03-13T22:28:30.246Z,98342.03
2023-03-13T22:31:33.891Z,98336.72
2023-03-13T22:34:36.829Z,98327.84
2023-03-13T22:37:39.818Z,98333.41
2023-03-13T22:40:43.948Z,98352.69
2023-03-13T22:43:46.612Z,98355.38
2023-03-13T22:46:52.347Z,98356.94
2023-03-13T22:49:55.050Z,98356.84
2023-03-13T22:53:00.828Z,98359.78
2023-03-13T22:56:05.174Z,98338.13
2023-03-13T22:59:10.918Z,98311.03
2023-03-13T23:02:18.588Z,98308.97
2023-03-13T23:05:21.409Z,98329.56
2023-03-13T23:08:24.230Z,98350.66
2023-03-13T23:11:31.395Z,98365.94
2023-03-13T23:14:34.147Z,98347.75
2023-03-13T23:17:37.309Z,98355.00
2023-03-13T23:20:40.043Z,98340.50
2023-03-13T23:23:43.277Z,98339.72
2023-03-13T23:26:47.302Z,98323.38
2023-03-13T23:29:51.646Z,98356.94
2023-03-13T23:32:54.451Z,98357.59
2023-03-13T23:35:57.685Z,98387.59
2023-03-13T23:39:04.153Z,98417.63
2023-03-13T23:42:08.497Z,98435.56
2023-03-13T23:45:11.513Z,98422.28
2023-03-13T23:48:17.177Z,98428.44
2023-03-13T23:51:19.878Z,98419.31
2023-03-13T23:54:25.749Z,98431.19
2023-03-13T23:57:29.873Z,98440.53
